Terminal Aerodrome Forecast
Issued by NWS Northern Indiana

Home | Current Version | Previous Version | Graphics & Text | Print | Product List | Glossary On
Versions: 1 2 3 4 5 6 7 8 9 10 11 12 13 14
000
FTUS43 KIWX 242338
TAFFWA
TAF
KFWA 242338Z 2500/2524 08010KT P6SM SCT250
     FM251000 12008KT P6SM BKN040
     FM251800 15012G20KT P6SM SCT050=

USA.gov is the U.S. government's official web portal to all federal, state and local government web resources and services.